createdAt,value
2018-02-07T00:00:21.364Z,-2.50
2018-02-07T00:02:50.009Z,-2.50
2018-02-07T00:05:19.425Z,-2.50
2018-02-07T00:07:48.876Z,-2.50
2018-02-07T00:10:17.547Z,-2.50
2018-02-07T00:12:46.229Z,-2.40
2018-02-07T00:15:14.883Z,-2.50
2018-02-07T00:17:43.569Z,-2.50
2018-02-07T00:20:12.666Z,-2.50
2018-02-07T00:22:41.312Z,-2.50
2018-02-07T00:25:10.009Z,-2.50
2018-02-07T00:27:38.656Z,-2.60
2018-02-07T00:30:06.970Z,-2.50
2018-02-07T00:32:35.631Z,-2.50
2018-02-07T00:35:04.286Z,-2.60
2018-02-07T00:37:32.976Z,-2.60
2018-02-07T00:40:01.644Z,-2.60
2018-02-07T00:42:31.059Z,-2.50
2018-02-07T00:44:59.723Z,-2.60
2018-02-07T00:47:28.407Z,-2.60
2018-02-07T00:49:57.850Z,-2.50
2018-02-07T00:52:26.500Z,-2.60
2018-02-07T00:54:55.271Z,-2.50
2018-02-07T00:57:24.717Z,-2.50
2018-02-07T00:59:53.404Z,-2.50
2018-02-07T01:02:22.120Z,-2.50
2018-02-07T01:04:50.796Z,-2.50
2018-02-07T01:07:19.445Z,-2.50
2018-02-07T01:09:48.138Z,-2.60
2018-02-07T01:12:16.800Z,-2.60
2018-02-07T01:14:45.481Z,-2.60
2018-02-07T01:17:14.138Z,-2.60
2018-02-07T01:19:42.798Z,-2.60
2018-02-07T01:22:11.466Z,-2.60
2018-02-07T01:24:40.120Z,-2.50
2018-02-07T01:27:09.548Z,-2.50
2018-02-07T01:29:38.299Z,-2.50
2018-02-07T01:32:07.727Z,-2.60
2018-02-07T01:34:36.389Z,-2.60
2018-02-07T01:37:05.801Z,-2.60
2018-02-07T01:39:34.474Z,-2.60
2018-02-07T01:42:03.893Z,-2.60
2018-02-07T01:44:32.557Z,-2.70
2018-02-07T01:47:01.985Z,-2.60
2018-02-07T01:49:30.662Z,-2.70
2018-02-07T01:51:59.340Z,-2.60
2018-02-07T01:54:28.803Z,-2.60
2018-02-07T01:56:57.464Z,-2.70
2018-02-07T01:59:26.151Z,-2.70
2018-02-07T02:01:54.814Z,-2.60
2018-02-07T02:04:23.484Z,-2.70
2018-02-07T02:06:52.906Z,-2.70
2018-02-07T02:09:21.796Z,-2.70
2018-02-07T02:11:50.459Z,-2.70
2018-02-07T02:14:19.876Z,-2.70
2018-02-07T02:16:48.557Z,-2.70
2018-02-07T02:19:17.036Z,-2.70
2018-02-07T02:21:45.686Z,-2.70
2018-02-07T02:24:14.356Z,-2.70
2018-02-07T02:26:43.040Z,-2.80
2018-02-07T02:29:12.473Z,-2.80
2018-02-07T02:31:42.921Z,-2.80
2018-02-07T02:34:11.595Z,-2.80
2018-02-07T02:36:40.884Z,-2.80
2018-02-07T02:39:10.308Z,-2.80
2018-02-07T02:41:39.724Z,-2.80
2018-02-07T02:44:08.369Z,-2.80
2018-02-07T02:46:37.064Z,-2.80
2018-02-07T02:49:06.483Z,-2.80
2018-02-07T02:51:35.168Z,-2.80
2018-02-07T02:54:03.824Z,-2.80
2018-02-07T02:56:32.504Z,-2.80
2018-02-07T02:59:01.148Z,-2.80
2018-02-07T03:01:29.816Z,-2.80
2018-02-07T03:03:58.468Z,-2.80
2018-02-07T03:06:27.879Z,-2.80
2018-02-07T03:08:57.308Z,-2.80
2018-02-07T03:11:25.962Z,-2.80
2018-02-07T03:13:55.401Z,-2.80
2018-02-07T03:16:24.052Z,-2.80
2018-02-07T03:18:53.492Z,-2.70
2018-02-07T03:21:22.144Z,-2.80
2018-02-07T03:23:51.552Z,-2.80
2018-02-07T03:26:20.248Z,-2.80
2018-02-07T03:28:48.912Z,-2.80
2018-02-07T03:31:18.340Z,-2.80
2018-02-07T03:33:46.997Z,-2.80
2018-02-07T03:36:16.438Z,-2.80
2018-02-07T03:38:45.088Z,-2.80
2018-02-07T03:41:14.549Z,-2.80
2018-02-07T03:43:43.391Z,-2.80
2018-02-07T03:46:12.799Z,-2.80
2018-02-07T03:48:41.465Z,-2.80
2018-02-07T03:51:10.888Z,-2.80
2018-02-07T03:53:39.548Z,-2.80
2018-02-07T03:56:08.968Z,-2.90
2018-02-07T03:58:38.389Z,-2.80
2018-02-07T04:01:07.037Z,-2.90
2018-02-07T04:03:36.454Z,-2.90
2018-02-07T04:06:05.115Z,-2.90
2018-02-07T04:08:33.763Z,-2.80
2018-02-07T04:11:03.332Z,-2.80
2018-02-07T04:13:31.984Z,-2.80
2018-02-07T04:16:00.669Z,-2.80
2018-02-07T04:18:29.320Z,-2.80
2018-02-07T04:20:58.075Z,-2.90
2018-02-07T04:23:27.570Z,-3.00
2018-02-07T04:25:57.041Z,-3.00
2018-02-07T04:28:26.510Z,-3.00
2018-02-07T04:30:55.259Z,-3.00
2018-02-07T04:33:24.684Z,-3.00
2018-02-07T04:35:53.330Z,-3.00
2018-02-07T04:38:21.973Z,-3.00
2018-02-07T04:40:51.418Z,-3.00
2018-02-07T04:43:20.064Z,-3.10
2018-02-07T04:45:48.724Z,-3.10
2018-02-07T04:48:17.372Z,-3.10
2018-02-07T04:50:46.039Z,-3.10
2018-02-07T04:53:14.692Z,-3.10
2018-02-07T04:55:43.333Z,-3.00
2018-02-07T04:58:12.016Z,-3.00
2018-02-07T05:00:40.855Z,-3.00
2018-02-07T05:03:09.512Z,-3.10
2018-02-07T05:05:38.933Z,-3.10
2018-02-07T05:08:07.607Z,-3.10
2018-02-07T05:10:36.290Z,-3.10
2018-02-07T05:13:05.706Z,-3.10
2018-02-07T05:15:34.392Z,-3.10
2018-02-07T05:18:03.084Z,-3.10
2018-02-07T05:20:31.840Z,-3.20
2018-02-07T05:23:01.264Z,-3.20
2018-02-07T05:25:30.013Z,-3.20
2018-02-07T05:27:59.448Z,-3.20
2018-02-07T05:30:28.292Z,-3.20
2018-02-07T05:32:56.970Z,-3.20
2018-02-07T05:35:25.624Z,-3.20
2018-02-07T05:37:54.264Z,-3.20
2018-02-07T05:40:22.924Z,-3.20
2018-02-07T05:42:51.560Z,-3.20
2018-02-07T05:45:20.328Z,-3.30
2018-02-07T05:47:49.737Z,-3.30
2018-02-07T05:50:18.972Z,-3.20
2018-02-07T05:52:47.611Z,-3.30
2018-02-07T05:55:17.031Z,-3.30
2018-02-07T05:57:45.707Z,-3.30
2018-02-07T06:00:15.126Z,-3.30
2018-02-07T06:02:43.584Z,-3.30
2018-02-07T06:05:12.992Z,-3.40
2018-02-07T06:07:42.795Z,-3.30
2018-02-07T06:10:12.591Z,-3.30
2018-02-07T06:12:41.228Z,-3.40
2018-02-07T06:15:09.886Z,-3.40
2018-02-07T06:17:39.660Z,-3.40
2018-02-07T06:20:08.324Z,-3.40
2018-02-07T06:22:36.992Z,-3.40
2018-02-07T06:25:05.676Z,-3.40
2018-02-07T06:27:34.331Z,-3.40
2018-02-07T06:30:03.440Z,-3.40
2018-02-07T06:32:32.624Z,-3.40
2018-02-07T06:35:02.164Z,-3.40
2018-02-07T06:37:30.849Z,-3.40
2018-02-07T06:39:59.519Z,-3.30
2018-02-07T06:42:28.186Z,-3.40
2018-02-07T06:44:56.316Z,-3.40
2018-02-07T06:47:25.767Z,-3.60
2018-02-07T06:49:54.436Z,-3.60
2018-02-07T06:52:24.594Z,-3.70
2018-02-07T06:54:53.357Z,-3.70
2018-02-07T06:57:22.018Z,-3.70
2018-02-07T06:59:50.677Z,-3.80
2018-02-07T07:02:19.332Z,-3.80
2018-02-07T07:04:47.992Z,-3.80
2018-02-07T07:07:17.427Z,-3.80
2018-02-07T07:09:46.083Z,-3.80
2018-02-07T07:12:14.776Z,-3.80
2018-02-07T07:14:43.424Z,-3.80
2018-02-07T07:17:12.227Z,-3.80
2018-02-07T07:19:41.634Z,-3.80
2018-02-07T07:22:11.076Z,-3.70
2018-02-07T07:24:39.744Z,-3.70
2018-02-07T07:27:08.400Z,-3.60
2018-02-07T07:29:37.051Z,-3.70
2018-02-07T07:32:06.480Z,-3.70
2018-02-07T07:34:35.770Z,-3.80
2018-02-07T07:37:04.412Z,-3.80
2018-02-07T07:39:33.159Z,-3.80
2018-02-07T07:42:02.579Z,-3.80
2018-02-07T07:44:31.987Z,-3.80
2018-02-07T07:47:00.664Z,-3.80
2018-02-07T07:49:29.891Z,-3.70
2018-02-07T07:51:58.580Z,-3.70
2018-02-07T07:54:27.266Z,-3.80
2018-02-07T07:56:55.911Z,-3.80
2018-02-07T07:59:24.617Z,-3.80
2018-02-07T08:01:53.289Z,-3.80
2018-02-07T08:04:22.721Z,-3.70
2018-02-07T08:06:51.363Z,-3.80
2018-02-07T08:09:20.784Z,-3.80
2018-02-07T08:11:49.437Z,-3.80
2018-02-07T08:14:18.088Z,-3.80
2018-02-07T08:16:46.764Z,-3.80
2018-02-07T08:19:15.419Z,-3.90
2018-02-07T08:21:44.839Z,-3.90
2018-02-07T08:24:13.557Z,-3.90
2018-02-07T08:26:42.228Z,-4.00
2018-02-07T08:29:10.871Z,-4.00
2018-02-07T08:31:40.286Z,-4.00
2018-02-07T08:34:08.952Z,-4.00
2018-02-07T08:36:38.371Z,-3.90
2018-02-07T08:39:07.038Z,-3.90
2018-02-07T08:41:36.448Z,-3.90
2018-02-07T08:44:05.545Z,-3.90
2018-02-07T08:46:34.192Z,-4.00
2018-02-07T08:49:03.759Z,-3.90
2018-02-07T08:51:32.477Z,-4.00
2018-02-07T08:54:01.136Z,-4.00
2018-02-07T08:56:29.791Z,-3.90
2018-02-07T08:58:59.205Z,-4.00
2018-02-07T09:01:27.896Z,-4.00
2018-02-07T09:03:56.655Z,-4.00
2018-02-07T09:06:26.077Z,-3.80
2018-02-07T09:08:54.743Z,-3.80
2018-02-07T09:11:24.153Z,-3.90
2018-02-07T09:13:53.593Z,-3.90
2018-02-07T09:16:22.232Z,-3.90
2018-02-07T09:18:51.977Z,-3.90
2018-02-07T09:21:20.634Z,-3.90
2018-02-07T09:23:49.283Z,-3.90
2018-02-07T09:26:17.957Z,-3.90
2018-02-07T09:28:46.614Z,-3.90
2018-02-07T09:31:15.277Z,-3.90
2018-02-07T09:33:44.712Z,-3.90
2018-02-07T09:36:13.421Z,-3.90
2018-02-07T09:38:42.071Z,-4.00
2018-02-07T09:41:10.703Z,-3.90
2018-02-07T09:43:39.364Z,-3.80
2018-02-07T09:46:08.024Z,-3.80
2018-02-07T09:48:36.692Z,-3.90
2018-02-07T09:51:05.346Z,-3.90
2018-02-07T09:53:34.009Z,-3.80
2018-02-07T09:56:02.656Z,-3.70
2018-02-07T09:58:31.296Z,-3.60
2018-02-07T10:00:59.956Z,-3.60
2018-02-07T10:03:28.607Z,-3.50
2018-02-07T10:05:57.269Z,-3.50
2018-02-07T10:08:26.697Z,-3.70
2018-02-07T10:10:55.358Z,-3.70
2018-02-07T10:13:24.785Z,-3.70
2018-02-07T10:15:53.440Z,-3.70
2018-02-07T10:18:22.865Z,-3.50
2018-02-07T10:20:51.587Z,-3.60
2018-02-07T10:23:20.260Z,-3.50
2018-02-07T10:25:48.909Z,-3.60
2018-02-07T10:28:18.344Z,-3.60
2018-02-07T10:30:47.004Z,-3.70
2018-02-07T10:33:15.654Z,-3.60
2018-02-07T10:35:44.321Z,-3.60
2018-02-07T10:38:12.990Z,-3.50
2018-02-07T10:40:41.775Z,-3.40
2018-02-07T10:43:10.560Z,-3.20
2018-02-07T10:45:39.233Z,-3.30
2018-02-07T10:48:07.883Z,-3.40
2018-02-07T10:50:37.318Z,-3.20
2018-02-07T10:53:05.993Z,-3.20
2018-02-07T10:55:34.696Z,-3.20
2018-02-07T10:58:03.370Z,-3.20
2018-02-07T11:00:32.008Z,-3.30
2018-02-07T11:03:00.691Z,-3.10
2018-02-07T11:05:29.153Z,-3.10
2018-02-07T11:07:57.815Z,-3.30
2018-02-07T11:10:26.475Z,-3.20
2018-02-07T11:12:55.880Z,-3.20
2018-02-07T11:15:25.321Z,-3.20
2018-02-07T11:17:54.044Z,-3.20
2018-02-07T11:20:22.718Z,-3.20
2018-02-07T11:22:51.376Z,-3.10
2018-02-07T11:25:20.042Z,-3.00
2018-02-07T11:27:48.715Z,-3.00
2018-02-07T11:30:17.372Z,-3.00
2018-02-07T11:32:46.804Z,-3.10
2018-02-07T11:35:15.512Z,-3.10
2018-02-07T11:37:44.229Z,-3.00
2018-02-07T11:40:12.887Z,-2.90
2018-02-07T11:42:41.544Z,-3.00
2018-02-07T11:45:15.205Z,-3.10
2018-02-07T11:47:44.635Z,-3.00
2018-02-07T11:50:14.290Z,-2.90
2018-02-07T11:52:42.945Z,-2.90
2018-02-07T11:55:11.604Z,-2.90
2018-02-07T11:57:41.019Z,-2.70
2018-02-07T12:00:09.736Z,-2.70
2018-02-07T12:02:39.344Z,-2.80
2018-02-07T12:05:08.025Z,-2.80
2018-02-07T12:07:36.699Z,-2.60
2018-02-07T12:10:05.368Z,-2.60
2018-02-07T12:12:34.038Z,-2.60
2018-02-07T12:15:03.465Z,-2.70
2018-02-07T12:17:32.144Z,-2.70
2018-02-07T12:20:00.800Z,-2.80
2018-02-07T12:22:29.461Z,-2.80
2018-02-07T12:24:58.889Z,-2.80
2018-02-07T12:27:27.574Z,-2.80
2018-02-07T12:29:56.248Z,-2.80
2018-02-07T12:32:25.689Z,-2.60
2018-02-07T12:34:54.358Z,-2.60
2018-02-07T12:37:23.838Z,-2.50
2018-02-07T12:39:52.491Z,-2.50
2018-02-07T12:42:21.172Z,-2.50
2018-02-07T12:44:49.820Z,-2.70
2018-02-07T12:47:19.678Z,-2.50
2018-02-07T12:49:49.124Z,-2.50
2018-02-07T12:52:17.868Z,-2.40
2018-02-07T12:54:47.611Z,-2.30
2018-02-07T12:57:16.257Z,-2.50
2018-02-07T12:59:44.947Z,-2.50
2018-02-07T13:02:13.664Z,-2.50
2018-02-07T13:04:43.094Z,-2.40
2018-02-07T13:07:12.545Z,-2.40
2018-02-07T13:09:41.193Z,-2.40
2018-02-07T13:12:09.862Z,-2.30
2018-02-07T13:14:39.286Z,-2.10
2018-02-07T13:17:07.970Z,-2.10
2018-02-07T13:19:38.093Z,-2.00
2018-02-07T13:22:06.777Z,-1.80
2018-02-07T13:24:35.451Z,-1.50
2018-02-07T13:27:04.104Z,-1.40
2018-02-07T13:29:32.793Z,-1.90
2018-02-07T13:32:01.441Z,-2.30
2018-02-07T13:34:30.176Z,-2.30
2018-02-07T13:36:59.642Z,-2.20
2018-02-07T13:39:28.360Z,-2.20
2018-02-07T13:41:57.832Z,-2.10
2018-02-07T13:44:27.276Z,-2.00
2018-02-07T13:46:56.708Z,-1.90
2018-02-07T13:49:25.396Z,-2.00
2018-02-07T13:51:54.115Z,-2.00
2018-02-07T13:54:22.812Z,-2.00
2018-02-07T13:56:51.456Z,-2.00
2018-02-07T13:59:20.132Z,-2.00
2018-02-07T14:01:48.792Z,-1.90
2018-02-07T14:04:18.287Z,-1.70
2018-02-07T14:06:47.369Z,-1.70
2018-02-07T14:09:16.041Z,-1.80
2018-02-07T14:11:44.720Z,-1.80
2018-02-07T14:14:13.414Z,-1.80
2018-02-07T14:16:42.083Z,-1.90
2018-02-07T14:19:11.382Z,-1.80
2018-02-07T14:21:40.052Z,-1.80
2018-02-07T14:24:08.700Z,-1.50
2018-02-07T14:26:38.128Z,-1.70
2018-02-07T14:29:06.787Z,-1.70
2018-02-07T14:31:36.306Z,-1.70
2018-02-07T14:34:04.948Z,-1.70
2018-02-07T14:36:33.595Z,-1.70
2018-02-07T14:39:02.277Z,-1.70
2018-02-07T14:41:30.657Z,-1.60
2018-02-07T14:43:59.320Z,-1.50
2018-02-07T14:46:27.990Z,-1.10
2018-02-07T14:48:56.398Z,-0.60
2018-02-07T14:51:24.823Z,-0.20
2018-02-07T14:53:53.359Z,0.20
2018-02-07T14:56:21.744Z,0.40
2018-02-07T14:58:50.121Z,0.30
2018-02-07T15:01:19.073Z,0.30
2018-02-07T15:03:48.022Z,0.50
2018-02-07T15:06:16.443Z,0.70
2018-02-07T15:08:45.513Z,0.50
2018-02-07T15:11:14.648Z,0.30
2018-02-07T15:13:43.049Z,0.30
2018-02-07T15:16:11.431Z,0.30
2018-02-07T15:18:39.820Z,0.20
2018-02-07T15:21:08.199Z,0.10
2018-02-07T15:23:36.867Z,0.10
2018-02-07T15:26:05.252Z,0.00
2018-02-07T15:28:33.680Z,0.00
2018-02-07T15:31:02.175Z,0.00
2018-02-07T15:33:31.589Z,-0.20
2018-02-07T15:35:59.992Z,-0.30
2018-02-07T15:38:28.470Z,-0.30
2018-02-07T15:40:57.144Z,-0.40
2018-02-07T15:43:25.348Z,-0.40
2018-02-07T15:45:53.742Z,-0.50
2018-02-07T15:48:22.396Z,-0.50
2018-02-07T15:50:51.054Z,-0.60
2018-02-07T15:53:19.832Z,-0.70
2018-02-07T15:55:49.244Z,-0.80
2018-02-07T15:58:18.676Z,-0.90
2018-02-07T16:00:47.324Z,-0.90
2018-02-07T16:03:16.761Z,-1.10
2018-02-07T16:05:45.416Z,-1.10
2018-02-07T16:08:14.875Z,-1.30
2018-02-07T16:10:43.561Z,-1.30
2018-02-07T16:13:12.263Z,-1.30
2018-02-07T16:15:41.085Z,-1.40
2018-02-07T16:18:09.812Z,-1.50
2018-02-07T16:20:38.486Z,-1.50
2018-02-07T16:23:07.216Z,-1.70
2018-02-07T16:25:36.092Z,-1.70
2018-02-07T16:28:05.556Z,-1.90
2018-02-07T16:30:34.313Z,-1.90
2018-02-07T16:33:03.769Z,-2.10
2018-02-07T16:35:32.459Z,-2.10
2018-02-07T16:38:01.107Z,-2.30
2018-02-07T16:40:29.885Z,-2.30
2018-02-07T16:42:58.696Z,-2.40
2018-02-07T16:45:27.092Z,-2.40
2018-02-07T16:47:55.561Z,-2.40
2018-02-07T16:50:24.244Z,-2.50
2018-02-07T16:52:52.914Z,-2.60
2018-02-07T16:55:21.555Z,-2.80
2018-02-07T16:57:50.262Z,-2.90
2018-02-07T17:00:19.681Z,-3.20
2018-02-07T17:02:49.108Z,-3.30
2018-02-07T17:05:17.755Z,-3.30
2018-02-07T17:07:47.191Z,-3.40
2018-02-07T17:10:16.142Z,-3.40
2018-02-07T17:12:45.560Z,-3.50
2018-02-07T17:15:14.239Z,-3.50
2018-02-07T17:17:42.887Z,-3.50
2018-02-07T17:20:11.552Z,-3.60
2018-02-07T17:22:40.222Z,-3.70
2018-02-07T17:25:08.892Z,-3.80
2018-02-07T17:27:37.746Z,-3.80
2018-02-07T17:30:06.409Z,-3.90
2018-02-07T17:32:35.064Z,-3.80
2018-02-07T17:35:03.728Z,-3.80
2018-02-07T17:37:32.396Z,-3.90
2018-02-07T17:40:01.821Z,-4.10
2018-02-07T17:42:30.483Z,-4.10
2018-02-07T17:45:00.460Z,-4.20
2018-02-07T17:47:29.120Z,-4.30
2018-02-07T17:49:57.844Z,-4.20
2018-02-07T17:52:28.582Z,-4.20
2018-02-07T17:54:57.254Z,-4.20
2018-02-07T17:57:25.914Z,-4.40
2018-02-07T17:59:54.646Z,-4.50
2018-02-07T18:02:23.367Z,-4.60
2018-02-07T18:04:52.164Z,-4.60
2018-02-07T18:07:20.921Z,-4.60
2018-02-07T18:09:50.334Z,-4.70
2018-02-07T18:12:19.808Z,-4.80
2018-02-07T18:14:48.491Z,-4.80
2018-02-07T18:17:17.162Z,-4.90
2018-02-07T18:19:45.905Z,-4.90
2018-02-07T18:22:14.634Z,-5.00
2018-02-07T18:24:43.329Z,-5.00
2018-02-07T18:27:12.312Z,-5.00
2018-02-07T18:29:40.988Z,-5.00
2018-02-07T18:32:13.278Z,-5.10
2018-02-07T18:34:42.803Z,-5.20
2018-02-07T18:37:11.521Z,-5.20
2018-02-07T18:39:40.245Z,-5.20
2018-02-07T18:42:08.914Z,-5.40
2018-02-07T18:44:37.684Z,-5.40
2018-02-07T18:47:06.380Z,-5.50
2018-02-07T18:49:35.079Z,-5.60
2018-02-07T18:52:04.540Z,-5.50
2018-02-07T18:54:33.962Z,-5.40
2018-02-07T18:57:02.600Z,-5.50
2018-02-07T18:59:32.452Z,-5.40
2018-02-07T19:02:01.864Z,-5.50
2018-02-07T19:04:30.537Z,-5.50
2018-02-07T19:06:59.195Z,-5.50
2018-02-07T19:09:27.948Z,-5.50
2018-02-07T19:11:56.630Z,-5.40
2018-02-07T19:14:25.359Z,-5.60
2018-02-07T19:16:54.036Z,-5.40
2018-02-07T19:19:23.476Z,-5.40
2018-02-07T19:21:52.340Z,-5.40
2018-02-07T19:24:21.052Z,-5.40
2018-02-07T19:26:50.300Z,-5.40
2018-02-07T19:29:20.367Z,-5.40
2018-02-07T19:31:49.384Z,-5.40
2018-02-07T19:34:18.049Z,-5.50
2018-02-07T20:46:40.700Z,-6.20
2018-02-07T20:49:09.558Z,-6.80
2018-02-07T20:51:38.291Z,-6.80
2018-02-07T20:54:07.701Z,-6.70
2018-02-07T20:56:37.123Z,-6.70
2018-02-07T20:59:05.765Z,-6.70
2018-02-07T21:01:34.435Z,-6.70
2018-02-07T21:04:04.052Z,-6.70
2018-02-07T21:06:32.758Z,-6.80
2018-02-07T21:09:02.175Z,-6.70
2018-02-07T21:11:30.918Z,-6.70
2018-02-07T21:13:59.574Z,-6.80
2018-02-07T21:16:28.315Z,-6.80
2018-02-07T21:18:57.745Z,-6.80
2018-02-07T21:21:26.404Z,-6.80
2018-02-07T21:23:55.855Z,-6.80
2018-02-07T21:26:24.526Z,-6.80
2018-02-07T21:28:53.275Z,-6.80
2018-02-07T21:31:22.813Z,-6.70
2018-02-07T21:33:51.479Z,-6.80
2018-02-07T21:36:20.151Z,-6.70
2018-02-07T21:38:49.558Z,-6.70
2018-02-07T21:41:18.980Z,-6.70
2018-02-07T21:43:47.491Z,-6.70
2018-02-07T21:46:16.222Z,-6.80
2018-02-07T21:48:45.663Z,-6.80
2018-02-07T21:51:14.301Z,-6.80
2018-02-07T21:53:43.770Z,-7.00
2018-02-07T21:56:12.480Z,-7.00
2018-02-07T21:58:41.180Z,-7.00
2018-02-07T22:01:09.823Z,-7.00
2018-02-07T22:03:38.526Z,-6.90
2018-02-07T22:06:07.184Z,-6.90
2018-02-07T22:08:35.907Z,-7.00
2018-02-07T22:11:05.756Z,-6.90
2018-02-07T22:13:34.450Z,-6.80
2018-02-07T22:16:04.269Z,-6.80
2018-02-07T22:18:32.953Z,-6.90
2018-02-07T22:21:01.642Z,-6.90
2018-02-07T22:23:30.292Z,-6.90
2018-02-07T22:25:59.697Z,-6.80
2018-02-07T22:28:29.123Z,-6.70
2018-02-07T22:30:57.780Z,-6.70
2018-02-07T22:33:27.227Z,-6.70
2018-02-07T22:35:56.559Z,-6.70
2018-02-07T22:38:25.228Z,-6.70
2018-02-07T22:40:53.884Z,-6.70
2018-02-07T22:43:22.547Z,-6.80
2018-02-07T22:45:51.989Z,-6.80
2018-02-07T22:48:20.684Z,-6.80
2018-02-07T22:50:49.345Z,-6.70
2018-02-07T22:53:17.986Z,-6.80
2018-02-07T22:55:46.700Z,-7.10
2018-02-07T22:58:15.370Z,-7.30
2018-02-07T23:00:44.463Z,-7.30
2018-02-07T23:03:13.895Z,-7.50
2018-02-07T23:05:42.535Z,-7.50
2018-02-07T23:08:11.197Z,-7.50
2018-02-07T23:10:40.649Z,-7.40
2018-02-07T23:13:09.382Z,-7.40
2018-02-07T23:15:38.030Z,-7.30
2018-02-07T23:18:06.729Z,-7.20
2018-02-07T23:20:35.488Z,-7.20
2018-02-07T23:23:05.822Z,-7.20
2018-02-07T23:25:34.496Z,-7.10
2018-02-07T23:28:03.912Z,-7.10
2018-02-07T23:30:32.660Z,-7.10
2018-02-07T23:33:01.322Z,-7.20
2018-02-07T23:35:30.010Z,-7.20
2018-02-07T23:37:59.244Z,-7.20
2018-02-07T23:40:27.898Z,-7.20
2018-02-07T23:42:56.575Z,-7.30
2018-02-07T23:45:25.247Z,-7.40
2018-02-07T23:47:53.925Z,-7.30
2018-02-07T23:50:22.569Z,-7.20
2018-02-07T23:52:51.993Z,-7.20
2018-02-07T23:55:20.668Z,-7.20
2018-02-07T23:57:50.111Z,-7.20
